sensor_id;sensor_type;location;lat;lon;timestamp;pressure;altitude;pressure_sealevel;temperature;humidity
74529;BME280;63009;52.584;5.932;2023-05-10T00:00:20;100786.66;;;12.39;100.00
74529;BME280;63009;52.584;5.932;2023-05-10T00:02:47;100790.22;;;12.38;100.00
74529;BME280;63009;52.584;5.932;2023-05-10T00:05:13;100790.22;;;12.38;100.00
74529;BME280;63009;52.584;5.932;2023-05-10T00:07:38;100781.53;;;12.36;100.00
74529;BME280;63009;52.584;5.932;2023-05-10T00:10:04;100777.63;;;12.41;100.00
74529;BME280;63009;52.584;5.932;2023-05-10T00:12:29;100783.03;;;12.40;100.00
74529;BME280;63009;52.584;5.932;2023-05-10T00:14:54;100780.28;;;12.41;100.00
74529;BME280;63009;52.584;5.932;2023-05-10T00:17:19;100778.59;;;12.40;100.00
74529;BME280;63009;52.584;5.932;2023-05-10T00:19:45;100770.81;;;12.37;100.00
74529;BME280;63009;52.584;5.932;2023-05-10T00:22:10;100783.69;;;12.43;100.00
74529;BME280;63009;52.584;5.932;2023-05-10T00:24:35;100759.28;;;12.38;100.00
74529;BME280;63009;52.584;5.932;2023-05-10T00:27:00;100764.69;;;12.37;100.00
74529;BME280;63009;52.584;5.932;2023-05-10T00:29:26;100769.88;;;12.38;100.00
74529;BME280;63009;52.584;5.932;2023-05-10T00:31:53;100771.59;;;12.39;100.00
74529;BME280;63009;52.584;5.932;2023-05-10T00:34:18;100769.97;;;12.37;100.00
74529;BME280;63009;52.584;5.932;2023-05-10T00:36:43;100759.81;;;12.31;100.00
74529;BME280;63009;52.584;5.932;2023-05-10T00:39:08;100760.13;;;12.26;100.00
74529;BME280;63009;52.584;5.932;2023-05-10T00:41:34;100771.88;;;12.35;100.00
74529;BME280;63009;52.584;5.932;2023-05-10T00:43:59;100762.13;;;12.35;100.00
74529;BME280;63009;52.584;5.932;2023-05-10T00:46:25;100762.13;;;12.35;100.00
74529;BME280;63009;52.584;5.932;2023-05-10T00:48:51;100760.16;;;12.39;100.00
74529;BME280;63009;52.584;5.932;2023-05-10T00:51:17;100769.03;;;12.38;100.00
74529;BME280;63009;52.584;5.932;2023-05-10T00:53:44;100768.28;;;12.36;100.00
74529;BME280;63009;52.584;5.932;2023-05-10T00:56:10;100761.28;;;12.35;100.00
74529;BME280;63009;52.584;5.932;2023-05-10T00:58:36;100751.09;;;12.29;100.00
74529;BME280;63009;52.584;5.932;2023-05-10T01:01:01;100754.41;;;12.32;100.00
74529;BME280;63009;52.584;5.932;2023-05-10T01:03:27;100759.06;;;12.29;100.00
74529;BME280;63009;52.584;5.932;2023-05-10T01:05:52;100764.25;;;12.30;100.00
74529;BME280;63009;52.584;5.932;2023-05-10T01:08:18;100751.31;;;12.26;100.00
74529;BME280;63009;52.584;5.932;2023-05-10T01:10:43;100757.25;;;12.29;100.00
74529;BME280;63009;52.584;5.932;2023-05-10T01:13:09;100763.63;;;12.27;100.00
74529;BME280;63009;52.584;5.932;2023-05-10T01:15:35;100762.94;;;12.23;100.00
74529;BME280;63009;52.584;5.932;2023-05-10T01:18:01;100757.66;;;12.23;100.00
74529;BME280;63009;52.584;5.932;2023-05-10T01:20:31;100762.31;;;12.19;100.00
74529;BME280;63009;52.584;5.932;2023-05-10T01:23:30;100762.41;;;12.18;100.00
74529;BME280;63009;52.584;5.932;2023-05-10T01:26:19;100763.06;;;12.22;100.00
74529;BME280;63009;52.584;5.932;2023-05-10T01:29:11;100765.81;;;12.20;100.00
74529;BME280;63009;52.584;5.932;2023-05-10T01:34:27;100751.19;;;12.14;100.00
74529;BME280;63009;52.584;5.932;2023-05-10T01:37:04;100757.13;;;12.18;100.00
74529;BME280;63009;52.584;5.932;2023-05-10T01:42:17;100764.00;;;12.21;100.00
74529;BME280;63009;52.584;5.932;2023-05-10T01:45:00;100757.97;;;12.18;100.00
74529;BME280;63009;52.584;5.932;2023-05-10T01:47:43;100760.59;;;12.18;100.00
74529;BME280;63009;52.584;5.932;2023-05-10T01:50:18;100760.81;;;12.15;100.00
74529;BME280;63009;52.584;5.932;2023-05-10T01:52:48;100764.53;;;12.13;100.00
74529;BME280;63009;52.584;5.932;2023-05-10T01:55:16;100771.31;;;12.17;100.00
74529;BME280;63009;52.584;5.932;2023-05-10T01:57:44;100756.47;;;12.14;100.00
74529;BME280;63009;52.584;5.932;2023-05-10T02:00:11;100759.34;;;12.11;100.00
74529;BME280;63009;52.584;5.932;2023-05-10T02:02:45;100763.47;;;12.15;100.00
74529;BME280;63009;52.584;5.932;2023-05-10T02:05:13;100767.28;;;12.11;100.00
74529;BME280;63009;52.584;5.932;2023-05-10T02:07:39;100761.13;;;12.11;100.00
74529;BME280;63009;52.584;5.932;2023-05-10T02:10:06;100762.25;;;12.07;100.00
74529;BME280;63009;52.584;5.932;2023-05-10T02:12:36;100763.69;;;12.12;100.00
74529;BME280;63009;52.584;5.932;2023-05-10T02:15:04;100774.38;;;12.11;100.00
74529;BME280;63009;52.584;5.932;2023-05-10T02:17:31;100763.97;;;12.08;100.00
74529;BME280;63009;52.584;5.932;2023-05-10T02:19:58;100772.66;;;12.10;100.00
74529;BME280;63009;52.584;5.932;2023-05-10T02:22:26;100770.84;;;12.10;100.00
74529;BME280;63009;52.584;5.932;2023-05-10T02:24:54;100776.16;;;12.10;100.00
74529;BME280;63009;52.584;5.932;2023-05-10T02:27:20;100776.81;;;12.14;100.00
74529;BME280;63009;52.584;5.932;2023-05-10T02:29:47;100777.09;;;12.09;100.00
74529;BME280;63009;52.584;5.932;2023-05-10T02:32:14;100782.31;;;12.11;100.00
74529;BME280;63009;52.584;5.932;2023-05-10T02:34:41;100789.13;;;12.15;100.00
74529;BME280;63009;52.584;5.932;2023-05-10T02:37:07;100786.56;;;12.13;100.00
74529;BME280;63009;52.584;5.932;2023-05-10T02:39:33;100790.91;;;12.14;100.00
74529;BME280;63009;52.584;5.932;2023-05-10T02:42:00;100789.13;;;12.15;100.00
74529;BME280;63009;52.584;5.932;2023-05-10T02:44:27;100778.91;;;12.09;100.00
74529;BME280;63009;52.584;5.932;2023-05-10T02:46:56;100781.28;;;12.13;100.00
74529;BME280;63009;52.584;5.932;2023-05-10T02:49:22;100774.56;;;12.08;100.00
74529;BME280;63009;52.584;5.932;2023-05-10T02:51:51;100787.53;;;12.12;100.00
74529;BME280;63009;52.584;5.932;2023-05-10T02:54:23;100778.81;;;12.10;100.00
74529;BME280;63009;52.584;5.932;2023-05-10T02:56:56;100780.53;;;12.11;100.00
74529;BME280;63009;52.584;5.932;2023-05-10T02:59:22;100780.44;;;12.13;100.00
74529;BME280;63009;52.584;5.932;2023-05-10T03:01:47;100785.81;;;12.11;100.00
74529;BME280;63009;52.584;5.932;2023-05-10T03:04:13;100786.00;;;12.08;100.00
74529;BME280;63009;52.584;5.932;2023-05-10T03:06:38;100784.50;;;12.04;100.00
74529;BME280;63009;52.584;5.932;2023-05-10T03:09:04;100778.06;;;12.08;100.00
74529;BME280;63009;52.584;5.932;2023-05-10T03:11:55;100778.25;;;12.05;100.00
74529;BME280;63009;52.584;5.932;2023-05-10T03:14:34;100776.34;;;12.07;100.00
74529;BME280;63009;52.584;5.932;2023-05-10T03:17:09;100784.41;;;12.06;100.00
74529;BME280;63009;52.584;5.932;2023-05-10T03:19:43;100786.22;;;12.05;100.00
74529;BME280;63009;52.584;5.932;2023-05-10T03:22:13;100785.47;;;12.03;100.00
74529;BME280;63009;52.584;5.932;2023-05-10T03:24:45;100794.16;;;12.05;100.00
74529;BME280;63009;52.584;5.932;2023-05-10T03:27:11;100795.22;;;12.03;100.00
74529;BME280;63009;52.584;5.932;2023-05-10T03:29:38;100792.56;;;12.03;100.00
74529;BME280;63009;52.584;5.932;2023-05-10T03:32:04;100787.16;;;12.04;100.00
74529;BME280;63009;52.584;5.932;2023-05-10T03:34:30;100796.06;;;12.03;100.00
74529;BME280;63009;52.584;5.932;2023-05-10T03:36:56;100792.66;;;12.01;100.00
74529;BME280;63009;52.584;5.932;2023-05-10T03:39:22;100797.97;;;12.01;100.00
74529;BME280;63009;52.584;5.932;2023-05-10T03:41:47;100800.63;;;12.01;100.00
74529;BME280;63009;52.584;5.932;2023-05-10T03:44:12;100798.81;;;12.02;100.00
74529;BME280;63009;52.584;5.932;2023-05-10T03:46:37;100796.69;;;12.07;100.00
74529;BME280;63009;52.584;5.932;2023-05-10T03:49:03;100803.06;;;12.04;100.00
74529;BME280;63009;52.584;5.932;2023-05-10T03:51:28;100802.22;;;12.04;100.00
74529;BME280;63009;52.584;5.932;2023-05-10T03:53:54;100806.44;;;12.06;100.00
74529;BME280;63009;52.584;5.932;2023-05-10T03:56:20;100809.19;;;12.05;100.00
74529;BME280;63009;52.584;5.932;2023-05-10T03:58:46;100812.69;;;12.05;100.00
74529;BME280;63009;52.584;5.932;2023-05-10T04:01:11;100815.03;;;12.10;100.00
74529;BME280;63009;52.584;5.932;2023-05-10T04:03:36;100811.53;;;12.09;100.00
74529;BME280;63009;52.584;5.932;2023-05-10T04:06:02;100822.91;;;12.11;100.00
74529;BME280;63009;52.584;5.932;2023-05-10T04:08:27;100818.75;;;12.07;100.00
74529;BME280;63009;52.584;5.932;2023-05-10T04:10:53;100819.16;;;12.01;100.00
74529;BME280;63009;52.584;5.932;2023-05-10T04:13:18;100820.66;;;12.05;100.00
74529;BME280;63009;52.584;5.932;2023-05-10T04:15:44;100816.31;;;12.04;100.00
74529;BME280;63009;52.584;5.932;2023-05-10T04:18:09;100821.69;;;12.03;100.00
74529;BME280;63009;52.584;5.932;2023-05-10T04:20:35;100816.72;;;11.98;100.00
74529;BME280;63009;52.584;5.932;2023-05-10T04:23:00;100818.19;;;12.02;100.00
74529;BME280;63009;52.584;5.932;2023-05-10T04:25:25;100815.00;;;11.97;100.00
74529;BME280;63009;52.584;5.932;2023-05-10T04:27:51;100825.59;;;11.97;100.00
74529;BME280;63009;52.584;5.932;2023-05-10T04:30:16;100820.38;;;11.96;100.00
74529;BME280;63009;52.584;5.932;2023-05-10T04:32:42;100831.66;;;11.99;100.00
74529;BME280;63009;52.584;5.932;2023-05-10T04:35:07;100833.44;;;11.99;100.00
74529;BME280;63009;52.584;5.932;2023-05-10T04:37:33;100833.63;;;11.96;100.00
74529;BME280;63009;52.584;5.932;2023-05-10T04:39:58;100844.22;;;11.96;100.00
74529;BME280;63009;52.584;5.932;2023-05-10T04:42:24;100842.41;;;11.96;100.00
74529;BME280;63009;52.584;5.932;2023-05-10T04:44:50;100836.69;;;11.89;100.00
74529;BME280;63009;52.584;5.932;2023-05-10T04:47:16;100844.53;;;11.91;100.00
74529;BME280;63009;52.584;5.932;2023-05-10T04:49:42;100839.13;;;11.93;100.00
74529;BME280;63009;52.584;5.932;2023-05-10T04:52:07;100834.03;;;11.89;100.00
74529;BME280;63009;52.584;5.932;2023-05-10T04:54:32;100841.78;;;11.93;100.00
74529;BME280;63009;52.584;5.932;2023-05-10T04:56:57;100844.31;;;11.94;100.00
74529;BME280;63009;52.584;5.932;2023-05-10T04:59:23;100841.66;;;11.94;100.00
74529;BME280;63009;52.584;5.932;2023-05-10T05:01:48;100847.66;;;11.98;100.00
74529;BME280;63009;52.584;5.932;2023-05-10T05:04:13;100843.94;;;12.00;100.00
74529;BME280;63009;52.584;5.932;2023-05-10T05:06:39;100841.00;;;12.05;100.00
74529;BME280;63009;52.584;5.932;2023-05-10T05:09:04;100852.06;;;12.11;100.00
74529;BME280;63009;52.584;5.932;2023-05-10T05:11:30;100849.09;;;12.16;100.00
74529;BME280;63009;52.584;5.932;2023-05-10T05:13:55;100849.75;;;12.19;100.00
74529;BME280;63009;52.584;5.932;2023-05-10T05:16:20;100855.03;;;12.19;100.00
74529;BME280;63009;52.584;5.932;2023-05-10T05:18:46;100853.59;;;12.28;100.00
74529;BME280;63009;52.584;5.932;2023-05-10T05:21:18;100849.16;;;12.29;100.00
74529;BME280;63009;52.584;5.932;2023-05-10T05:23:45;100855.19;;;12.31;100.00
74529;BME280;63009;52.584;5.932;2023-05-10T05:26:10;100851.19;;;12.38;100.00
74529;BME280;63009;52.584;5.932;2023-05-10T05:28:36;100867.00;;;12.39;100.00
74529;BME280;63009;52.584;5.932;2023-05-10T05:31:04;100864.25;;;12.41;100.00
74529;BME280;63009;52.584;5.932;2023-05-10T05:33:30;100860.56;;;12.43;100.00
74529;BME280;63009;52.584;5.932;2023-05-10T05:35:56;100872.75;;;12.46;100.00
74529;BME280;63009;52.584;5.932;2023-05-10T05:38:21;100868.28;;;12.46;100.00
74529;BME280;63009;52.584;5.932;2023-05-10T05:40:47;100865.97;;;12.42;100.00
74529;BME280;63009;52.584;5.932;2023-05-10T05:43:12;100882.28;;;12.48;100.00
74529;BME280;63009;52.584;5.932;2023-05-10T05:45:38;100871.91;;;12.45;100.00
74529;BME280;63009;52.584;5.932;2023-05-10T05:48:04;100887.31;;;12.53;100.00
74529;BME280;63009;52.584;5.932;2023-05-10T05:50:29;100877.75;;;12.51;100.00
74529;BME280;63009;52.584;5.932;2023-05-10T05:52:54;100884.00;;;12.49;100.00
74529;BME280;63009;52.584;5.932;2023-05-10T05:55:20;100878.69;;;12.49;100.00
74529;BME280;63009;52.584;5.932;2023-05-10T05:57:45;100881.25;;;12.51;100.00
74529;BME280;63009;52.584;5.932;2023-05-10T06:00:11;100881.44;;;12.48;100.00
74529;BME280;63009;52.584;5.932;2023-05-10T06:02:36;100877.94;;;12.47;100.00
74529;BME280;63009;52.584;5.932;2023-05-10T06:05:01;100889.41;;;12.48;100.00
74529;BME280;63009;52.584;5.932;2023-05-10T06:07:27;100895.91;;;12.57;100.00
74529;BME280;63009;52.584;5.932;2023-05-10T06:09:52;100907.16;;;12.60;100.00
74529;BME280;63009;52.584;5.932;2023-05-10T06:12:18;100898.09;;;12.50;100.00
74529;BME280;63009;52.584;5.932;2023-05-10T06:14:43;100891.31;;;12.46;100.00
74529;BME280;63009;52.584;5.932;2023-05-10T06:17:08;100908.53;;;12.53;100.00
74529;BME280;63009;52.584;5.932;2023-05-10T06:19:33;100910.72;;;12.46;100.00
74529;BME280;63009;52.584;5.932;2023-05-10T06:21:59;100906.78;;;12.39;100.00
74529;BME280;63009;52.584;5.932;2023-05-10T06:24:24;100905.19;;;12.49;100.00
74529;BME280;63009;52.584;5.932;2023-05-10T06:26:49;100908.16;;;12.45;100.00
74529;BME280;63009;52.584;5.932;2023-05-10T06:29:15;100907.41;;;12.43;100.00
74529;BME280;63009;52.584;5.932;2023-05-10T06:31:40;100910.28;;;12.40;100.00
74529;BME280;63009;52.584;5.932;2023-05-10T06:34:06;100912.81;;;12.41;100.00
74529;BME280;63009;52.584;5.932;2023-05-10T06:36:33;100918.13;;;12.41;100.00
74529;BME280;63009;52.584;5.932;2023-05-10T06:38:58;100920.56;;;12.44;100.00
74529;BME280;63009;52.584;5.932;2023-05-10T06:41:23;100912.50;;;12.46;100.00
74529;BME280;63009;52.584;5.932;2023-05-10T06:43:48;100909.97;;;12.44;100.00
74529;BME280;63009;52.584;5.932;2023-05-10T06:46:14;100920.34;;;12.47;100.00
74529;BME280;63009;52.584;5.932;2023-05-10T06:48:39;100924.81;;;12.47;100.00
74529;BME280;63009;52.584;5.932;2023-05-10T06:51:05;100917.72;;;12.47;100.00
74529;BME280;63009;52.584;5.932;2023-05-10T06:53:30;100923.22;;;12.44;100.00
74529;BME280;63009;52.584;5.932;2023-05-10T06:55:55;100930.22;;;12.45;100.00
74529;BME280;63009;52.584;5.932;2023-05-10T06:58:20;100928.63;;;12.43;100.00
74529;BME280;63009;52.584;5.932;2023-05-10T07:00:46;100933.50;;;12.49;100.00
74529;BME280;63009;52.584;5.932;2023-05-10T07:03:12;100939.56;;;12.51;100.00
74529;BME280;63009;52.584;5.932;2023-05-10T07:05:37;100932.94;;;12.58;100.00
74529;BME280;63009;52.584;5.932;2023-05-10T07:08:02;100938.03;;;12.61;100.00
74529;BME280;63009;52.584;5.932;2023-05-10T07:10:28;100938.13;;;12.60;100.00
74529;BME280;63009;52.584;5.932;2023-05-10T07:12:53;100943.00;;;12.66;100.00
74529;BME280;63009;52.584;5.932;2023-05-10T07:15:18;100946.22;;;12.71;100.00
74529;BME280;63009;52.584;5.932;2023-05-10T07:17:44;100947.09;;;12.71;100.00
74529;BME280;63009;52.584;5.932;2023-05-10T07:20:09;100946.56;;;12.79;100.00
74529;BME280;63009;52.584;5.932;2023-05-10T07:22:35;100947.34;;;12.81;100.00
74529;BME280;63009;52.584;5.932;2023-05-10T07:25:00;100952.13;;;12.89;100.00
74529;BME280;63009;52.584;5.932;2023-05-10T07:27:25;100949.25;;;12.92;100.00
74529;BME280;63009;52.584;5.932;2023-05-10T07:29:51;100949.63;;;13.00;100.00
74529;BME280;63009;52.584;5.932;2023-05-10T07:32:16;100954.72;;;13.03;100.00
74529;BME280;63009;52.584;5.932;2023-05-10T07:34:41;100954.09;;;13.12;100.00
74529;BME280;63009;52.584;5.932;2023-05-10T07:37:06;100946.38;;;13.22;100.00
74529;BME280;63009;52.584;5.932;2023-05-10T07:39:32;100955.53;;;13.30;100.00
74529;BME280;63009;52.584;5.932;2023-05-10T07:41:57;100959.16;;;13.42;100.00
74529;BME280;63009;52.584;5.932;2023-05-10T07:44:23;100966.94;;;13.58;100.00
74529;BME280;63009;52.584;5.932;2023-05-10T07:46:48;100965.75;;;13.75;100.00
74529;BME280;63009;52.584;5.932;2023-05-10T07:49:13;100958.63;;;13.88;100.00
74529;BME280;63009;52.584;5.932;2023-05-10T07:51:39;100974.69;;;13.86;100.00
74529;BME280;63009;52.584;5.932;2023-05-10T07:54:04;100972.75;;;13.88;100.00
74529;BME280;63009;52.584;5.932;2023-05-10T07:56:31;100970.84;;;13.90;100.00
74529;BME280;63009;52.584;5.932;2023-05-10T07:59:00;100967.56;;;13.87;100.00
74529;BME280;63009;52.584;5.932;2023-05-10T08:01:26;100986.59;;;13.93;100.00
74529;BME280;63009;52.584;5.932;2023-05-10T08:03:51;100981.47;;;13.90;100.00
74529;BME280;63009;52.584;5.932;2023-05-10T08:06:19;100981.06;;;13.96;100.00
74529;BME280;63009;52.584;5.932;2023-05-10T08:08:48;100990.84;;;13.96;100.00
74529;BME280;63009;52.584;5.932;2023-05-10T08:11:19;100990.91;;;14.07;100.00
74529;BME280;63009;52.584;5.932;2023-05-10T08:13:46;100985.19;;;14.01;100.00
74529;BME280;63009;52.584;5.932;2023-05-10T08:16:11;100989.88;;;14.10;100.00
74529;BME280;63009;52.584;5.932;2023-05-10T08:18:38;100996.78;;;14.12;100.00
74529;BME280;63009;52.584;5.932;2023-05-10T08:21:03;100994.50;;;14.19;100.00
74529;BME280;63009;52.584;5.932;2023-05-10T08:23:29;100988.56;;;14.15;100.00
74529;BME280;63009;52.584;5.932;2023-05-10T08:25:54;100991.22;;;14.15;100.00
74529;BME280;63009;52.584;5.932;2023-05-10T08:28:19;100998.84;;;14.33;100.00
74529;BME280;63009;52.584;5.932;2023-05-10T08:30:45;101011.41;;;14.18;100.00
74529;BME280;63009;52.584;5.932;2023-05-10T08:33:10;101004.41;;;14.17;100.00
74529;BME280;63009;52.584;5.932;2023-05-10T08:35:35;101001.88;;;14.15;100.00
74529;BME280;63009;52.584;5.932;2023-05-10T08:38:01;101013.16;;;13.93;100.00
74529;BME280;63009;52.584;5.932;2023-05-10T08:40:26;101010.81;;;14.02;100.00
74529;BME280;63009;52.584;5.932;2023-05-10T08:43:11;101019.41;;;14.05;100.00
74529;BME280;63009;52.584;5.932;2023-05-10T08:45:41;101014.41;;;14.01;100.00
74529;BME280;63009;52.584;5.932;2023-05-10T08:48:07;101027.50;;;14.04;100.00
74529;BME280;63009;52.584;5.932;2023-05-10T08:50:41;101027.47;;;14.16;100.00
74529;BME280;63009;52.584;5.932;2023-05-10T08:53:10;101024.81;;;14.16;100.00
74529;BME280;63009;52.584;5.932;2023-05-10T08:55:37;101028.09;;;14.20;100.00
74529;BME280;63009;52.584;5.932;2023-05-10T08:58:06;101021.44;;;14.14;100.00
74529;BME280;63009;52.584;5.932;2023-05-10T09:00:32;101029.38;;;14.27;100.00
74529;BME280;63009;52.584;5.932;2023-05-10T09:02:58;101027.03;;;14.35;100.00
74529;BME280;63009;52.584;5.932;2023-05-10T09:05:24;101036.19;;;14.31;100.00
74529;BME280;63009;52.584;5.932;2023-05-10T09:07:49;101043.66;;;14.26;100.00
74529;BME280;63009;52.584;5.932;2023-05-10T09:10:15;101032.25;;;14.37;100.00
74529;BME280;63009;52.584;5.932;2023-05-10T09:12:41;101041.41;;;14.45;100.00
74529;BME280;63009;52.584;5.932;2023-05-10T09:15:09;101039.06;;;14.53;100.00
74529;BME280;63009;52.584;5.932;2023-05-10T09:17:34;101046.28;;;14.64;100.00
74529;BME280;63009;52.584;5.932;2023-05-10T09:20:01;101036.13;;;14.69;99.83
74529;BME280;63009;52.584;5.932;2023-05-10T09:22:27;101046.31;;;14.75;99.78
74529;BME280;63009;52.584;5.932;2023-05-10T09:25:09;101053.16;;;14.79;100.00
74529;BME280;63009;52.584;5.932;2023-05-10T09:27:35;101054.00;;;14.80;100.00
74529;BME280;63009;52.584;5.932;2023-05-10T09:30:02;101049.41;;;14.82;100.00
74529;BME280;63009;52.584;5.932;2023-05-10T09:32:41;101052.63;;;14.98;100.00
74529;BME280;63009;52.584;5.932;2023-05-10T09:35:11;101061.09;;;14.92;100.00
74529;BME280;63009;52.584;5.932;2023-05-10T09:37:41;101058.25;;;14.82;99.36
74529;BME280;63009;52.584;5.932;2023-05-10T09:40:10;101058.34;;;14.81;97.26
74529;BME280;63009;52.584;5.932;2023-05-10T09:42:36;101068.03;;;14.82;99.44
74529;BME280;63009;52.584;5.932;2023-05-10T09:45:05;101070.16;;;14.77;99.75
74529;BME280;63009;52.584;5.932;2023-05-10T09:47:32;101069.31;;;14.76;99.01
74529;BME280;63009;52.584;5.932;2023-05-10T09:49:59;101068.81;;;14.71;99.63
74529;BME280;63009;52.584;5.932;2023-05-10T09:52:45;101068.56;;;14.74;100.00
74529;BME280;63009;52.584;5.932;2023-05-10T09:55:11;101072.72;;;14.78;100.00
74529;BME280;63009;52.584;5.932;2023-05-10T09:57:37;101073.47;;;14.80;99.50
74529;BME280;63009;52.584;5.932;2023-05-10T10:00:03;101084.00;;;14.82;100.00
74529;BME280;63009;52.584;5.932;2023-05-10T10:02:31;101078.69;;;14.82;100.00
74529;BME280;63009;52.584;5.932;2023-05-10T10:04:56;101082.69;;;14.88;100.00
74529;BME280;63009;52.584;5.932;2023-05-10T10:07:23;101085.78;;;14.94;100.00
74529;BME280;63009;52.584;5.932;2023-05-10T10:09:50;101086.78;;;14.80;98.96
74529;BME280;63009;52.584;5.932;2023-05-10T10:12:16;101083.78;;;14.85;99.53
74529;BME280;63009;52.584;5.932;2023-05-10T10:14:42;101094.22;;;14.75;99.76
74529;BME280;63009;52.584;5.932;2023-05-10T10:17:08;101104.13;;;14.73;100.00
74529;BME280;63009;52.584;5.932;2023-05-10T10:19:34;101095.94;;;14.64;100.00
74529;BME280;63009;52.584;5.932;2023-05-10T10:22:02;101101.19;;;14.65;100.00
74529;BME280;63009;52.584;5.932;2023-05-10T10:24:27;101099.47;;;14.64;99.39
74529;BME280;63009;52.584;5.932;2023-05-10T10:26:55;101108.94;;;14.68;98.65
74529;BME280;63009;52.584;5.932;2023-05-10T10:29:39;101101.47;;;14.73;100.00
74529;BME280;63009;52.584;5.932;2023-05-10T10:33:01;101106.47;;;14.78;100.00
74529;BME280;63009;52.584;5.932;2023-05-10T10:35:32;101109.13;;;14.78;99.77
74529;BME280;63009;52.584;5.932;2023-05-10T10:38:00;101114.47;;;14.65;99.41
74529;BME280;63009;52.584;5.932;2023-05-10T10:40:30;101106.50;;;14.52;99.37
74529;BME280;63009;52.584;5.932;2023-05-10T10:42:56;101109.88;;;14.42;100.00
74529;BME280;63009;52.584;5.932;2023-05-10T10:45:23;101118.00;;;14.53;100.00
74529;BME280;63009;52.584;5.932;2023-05-10T10:48:18;101113.53;;;14.53;100.00
74529;BME280;63009;52.584;5.932;2023-05-10T10:50:44;101114.78;;;14.48;100.00
74529;BME280;63009;52.584;5.932;2023-05-10T10:53:11;101120.41;;;14.43;100.00
74529;BME280;63009;52.584;5.932;2023-05-10T10:55:45;101111.28;;;14.22;100.00
74529;BME280;63009;52.584;5.932;2023-05-10T10:58:29;101112.88;;;14.24;100.00
74529;BME280;63009;52.584;5.932;2023-05-10T11:01:10;101121.25;;;14.31;100.00
74529;BME280;63009;52.584;5.932;2023-05-10T11:03:35;101122.34;;;14.29;100.00
74529;BME280;63009;52.584;5.932;2023-05-10T11:06:00;101120.75;;;14.26;100.00
74529;BME280;63009;52.584;5.932;2023-05-10T11:08:27;101127.88;;;14.25;100.00
74529;BME280;63009;52.584;5.932;2023-05-10T11:13:46;101134.25;;;14.23;100.00
74529;BME280;63009;52.584;5.932;2023-05-10T11:21:24;101138.03;;;14.06;100.00
74529;BME280;63009;52.584;5.932;2023-05-10T11:23:51;101123.81;;;13.94;100.00
74529;BME280;63009;52.584;5.932;2023-05-10T11:26:17;101129.03;;;13.96;100.00
74529;BME280;63009;52.584;5.932;2023-05-10T11:28:44;101144.63;;;14.01;100.00
74529;BME280;63009;52.584;5.932;2023-05-10T11:31:10;101134.84;;;14.01;100.00
74529;BME280;63009;52.584;5.932;2023-05-10T11:33:51;101144.88;;;14.10;100.00
74529;BME280;63009;52.584;5.932;2023-05-10T11:36:23;101143.06;;;14.11;100.00
74529;BME280;63009;52.584;5.932;2023-05-10T11:38:48;101143.69;;;14.02;100.00
74529;BME280;63009;52.584;5.932;2023-05-10T11:41:15;101143.69;;;14.14;100.00
74529;BME280;63009;52.584;5.932;2023-05-10T11:43:41;101138.50;;;14.13;100.00
74529;BME280;63009;52.584;5.932;2023-05-10T11:46:09;101144.56;;;14.27;100.00
74529;BME280;63009;52.584;5.932;2023-05-10T11:48:35;101147.56;;;14.23;100.00
74529;BME280;63009;52.584;5.932;2023-05-10T11:51:01;101148.50;;;14.22;100.00
74529;BME280;63009;52.584;5.932;2023-05-10T11:53:29;101146.69;;;14.22;100.00
74529;BME280;63009;52.584;5.932;2023-05-10T11:55:54;101147.34;;;14.26;100.00
74529;BME280;63009;52.584;5.932;2023-05-10T11:58:19;101146.47;;;14.25;100.00
74529;BME280;63009;52.584;5.932;2023-05-10T12:00:46;101157.97;;;14.39;100.00
74529;BME280;63009;52.584;5.932;2023-05-10T12:03:12;101158.09;;;14.37;100.00
74529;BME280;63009;52.584;5.932;2023-05-10T12:05:37;101156.06;;;14.41;100.00
74529;BME280;63009;52.584;5.932;2023-05-10T12:08:16;101165.44;;;14.46;99.01
74529;BME280;63009;52.584;5.932;2023-05-10T12:10:44;101157.47;;;14.46;100.00
74529;BME280;63009;52.584;5.932;2023-05-10T12:13:14;101164.59;;;14.59;100.00
74529;BME280;63009;52.584;5.932;2023-05-10T12:15:40;101159.69;;;14.65;100.00
74529;BME280;63009;52.584;5.932;2023-05-10T12:18:08;101158.94;;;14.63;99.74
74529;BME280;63009;52.584;5.932;2023-05-10T12:20:34;101155.97;;;14.68;99.52
74529;BME280;63009;52.584;5.932;2023-05-10T12:22:59;101163.50;;;14.74;100.00
74529;BME280;63009;52.584;5.932;2023-05-10T12:25:31;101170.97;;;14.81;99.23
74529;BME280;63009;52.584;5.932;2023-05-10T12:27:58;101166.25;;;14.85;98.85
74529;BME280;63009;52.584;5.932;2023-05-10T12:30:26;101174.59;;;14.80;98.51
74529;BME280;63009;52.584;5.932;2023-05-10T12:32:53;101175.53;;;14.79;98.62
74529;BME280;63009;52.584;5.932;2023-05-10T12:35:18;101178.31;;;14.78;98.96
74529;BME280;63009;52.584;5.932;2023-05-10T12:37:49;101181.38;;;14.84;99.52
74529;BME280;63009;52.584;5.932;2023-05-10T12:40:15;101185.94;;;14.95;100.00
74529;BME280;63009;52.584;5.932;2023-05-10T12:42:40;101178.06;;;15.06;99.83
74529;BME280;63009;52.584;5.932;2023-05-10T12:45:06;101176.41;;;15.17;98.54
74529;BME280;63009;52.584;5.932;2023-05-10T12:47:32;101180.22;;;15.25;97.95
74529;BME280;63009;52.584;5.932;2023-05-10T12:49:57;101181.16;;;15.37;98.27
74529;BME280;63009;52.584;5.932;2023-05-10T12:52:24;101179.16;;;15.28;95.46
74529;BME280;63009;52.584;5.932;2023-05-10T12:54:49;101184.91;;;15.34;94.12